Time;durP1;ratioP1;P1;durP2;ratioP2;P2;SDS_P1;SDS_P2;PMS_P1;PMS_P2;Temp;Humidity;BMP_temperature;BMP_pressure;BME280_temperature;BME280_humidity;BME280_pressure;Samples;Min_cycle;Max_cycle;Signal;HPM_P1;HPM_P2
2022/01/19 00:00:16;;;;;;;12.27;6.20;;;4.70;99.90;;;;;;5034909;28;20473;-67
2022/01/19 00:02:43;;;;;;;9.50;3.80;;;4.60;99.90;;;;;;5036195;28;21215;-66
2022/01/19 00:05:11;;;;;;;7.27;2.53;;;4.60;99.90;;;;;;5038651;28;20606;-67
2022/01/19 00:07:40;;;;;;;6.20;2.90;;;4.40;99.90;;;;;;5026916;28;20437;-67
2022/01/19 00:10:11;;;;;;;8.10;3.90;;;4.20;99.90;;;;;;5039487;28;21023;-68
2022/01/19 00:12:39;;;;;;;3.60;2.03;;;4.10;99.90;;;;;;5041466;28;20533;-67
2022/01/19 00:15:08;;;;;;;4.30;3.40;;;4.00;99.90;;;;;;5023018;28;20486;-67
2022/01/19 00:17:35;;;;;;;5.60;3.80;;;4.10;99.90;;;;;;5035780;28;20462;-68
2022/01/19 00:20:02;;;;;;;3.63;2.67;;;4.10;99.90;;;;;;5041651;28;20426;-66
2022/01/19 00:22:29;;;;;;;3.00;2.40;;;4.20;99.90;;;;;;5034441;28;20490;-64
2022/01/19 00:24:57;;;;;;;12.23;3.53;;;4.20;99.90;;;;;;5028156;28;20512;-67
2022/01/19 00:27:24;;;;;;;3.53;2.50;;;4.20;99.90;;;;;;5032174;28;20547;-67
2022/01/19 00:29:51;;;;;;;4.50;4.00;;;4.20;99.90;;;;;;5035039;28;20525;-66
2022/01/19 00:32:19;;;;;;;11.03;3.63;;;4.10;99.90;;;;;;5040975;28;20484;-66
2022/01/19 00:34:46;;;;;;;10.10;5.67;;;4.10;99.90;;;;;;5025897;28;20485;-66
2022/01/19 00:37:13;;;;;;;3.50;2.53;;;3.90;99.90;;;;;;5028093;28;21565;-66
2022/01/19 00:39:39;;;;;;;6.13;3.37;;;3.90;99.90;;;;;;5029255;28;21008;-66
2022/01/19 00:42:08;;;;;;;9.97;4.73;;;3.80;99.90;;;;;;5040039;28;20426;-66
2022/01/19 00:44:35;;;;;;;8.67;4.10;;;3.70;99.90;;;;;;5030095;28;21057;-64
2022/01/19 00:47:02;;;;;;;6.27;3.47;;;3.70;99.90;;;;;;5041777;28;20795;-66
2022/01/19 00:49:29;;;;;;;8.37;3.53;;;3.70;99.90;;;;;;5026458;28;20550;-65
2022/01/19 00:51:56;;;;;;;6.53;3.27;;;3.80;99.90;;;;;;5033154;28;20873;-65
2022/01/19 00:54:23;;;;;;;6.03;4.13;;;3.70;99.90;;;;;;5034531;28;20465;-66
2022/01/19 00:56:50;;;;;;;4.60;2.10;;;3.70;99.90;;;;;;5036320;28;20458;-66
2022/01/19 00:59:19;;;;;;;3.40;1.80;;;3.70;99.90;;;;;;5033328;28;20550;-66
2022/01/19 01:01:45;;;;;;;6.07;2.73;;;3.80;99.90;;;;;;5039435;28;21316;-65
2022/01/19 01:04:13;;;;;;;4.10;3.00;;;3.70;99.90;;;;;;5029435;28;20543;-66
2022/01/19 01:06:40;;;;;;;6.27;3.83;;;3.60;99.90;;;;;;5033152;28;20434;-66
2022/01/19 01:09:07;;;;;;;8.13;3.87;;;3.50;99.90;;;;;;5037972;28;20549;-65
2022/01/19 01:11:37;;;;;;;8.80;4.87;;;3.50;99.90;;;;;;5033066;28;20496;-66
2022/01/19 01:17:11;;;;;;;14.40;3.93;;;3.50;99.90;;;;;;5038417;28;20425;-66
2022/01/19 01:19:38;;;;;;;14.33;4.67;;;3.50;99.90;;;;;;5032593;28;20517;-67
2022/01/19 01:22:06;;;;;;;9.70;3.10;;;3.60;99.90;;;;;;5032172;28;20897;-66
2022/01/19 01:24:33;;;;;;;6.40;2.83;;;3.40;99.90;;;;;;5030894;28;20451;-66
2022/01/19 01:27:00;;;;;;;15.90;4.77;;;3.20;99.90;;;;;;5030558;28;20462;-66
2022/01/19 01:29:27;;;;;;;6.80;2.70;;;3.20;99.90;;;;;;5033829;28;20905;-67
2022/01/19 01:31:55;;;;;;;3.43;2.93;;;3.20;99.90;;;;;;5032069;28;20465;-65
2022/01/19 01:34:22;;;;;;;6.90;4.20;;;3.20;99.90;;;;;;5031860;28;20570;-68
2022/01/19 01:36:49;;;;;;;14.07;3.80;;;3.10;99.90;;;;;;5037150;28;20531;-66
2022/01/19 01:39:16;;;;;;;7.13;3.63;;;3.20;99.90;;;;;;5038242;28;20483;-68
2022/01/19 01:41:43;;;;;;;6.50;3.43;;;3.00;99.90;;;;;;5039702;28;20859;-67
2022/01/19 01:44:11;;;;;;;12.23;3.50;;;3.10;99.90;;;;;;5034854;28;20548;-67
2022/01/19 01:46:46;;;;;;;13.37;3.90;;;3.20;99.90;;;;;;5038491;28;20912;-66
2022/01/19 01:49:16;;;;;;;9.20;3.80;;;3.20;99.90;;;;;;5035952;28;20936;-67
2022/01/19 01:54:28;;;;;;;7.07;4.50;;;3.10;99.90;;;;;;5033782;28;20545;-66
2022/01/19 01:56:55;;;;;;;5.77;3.03;;;3.10;99.90;;;;;;5033641;28;20460;-65
2022/01/19 01:59:22;;;;;;;5.57;3.77;;;3.20;99.90;;;;;;5033940;28;21041;-65
2022/01/19 02:01:49;;;;;;;13.47;4.60;;;3.20;99.90;;;;;;5041842;28;20422;-67
2022/01/19 02:04:21;;;;;;;7.07;3.53;;;3.20;99.90;;;;;;5039415;28;20507;-65
2022/01/19 02:09:38;;;;;;;4.13;3.50;;;3.10;99.90;;;;;;5006767;28;20429;-66
2022/01/19 02:23:21;;;;;;;3.57;2.47;;;2.20;99.90;;;;;;5011824;28;20994;-66
2022/01/19 02:25:49;;;;;;;8.17;4.90;;;2.30;99.90;;;;;;5028860;28;20432;-66
2022/01/19 02:31:35;;;;;;;15.87;4.60;;;2.20;99.90;;;;;;5040900;28;20471;-66
2022/01/19 02:40:09;;;;;;;9.83;3.77;;;2.40;99.90;;;;;;4980393;28;20447;-68
2022/01/19 02:42:32;;;;;;;2.40;2.20;;;2.50;99.90;;;;;;5040671;28;20444;-66
2022/01/19 02:50:31;;;;;;;6.00;3.70;;;2.40;99.90;;;;;;5039385;28;20502;-66
2022/01/19 02:52:59;;;;;;;5.43;3.80;;;2.60;99.90;;;;;;5038999;28;20785;-66
2022/01/19 02:55:26;;;;;;;5.23;3.10;;;2.70;99.90;;;;;;5034606;28;20546;-65
2022/01/19 02:57:53;;;;;;;4.10;3.20;;;2.90;99.90;;;;;;5035505;28;20456;-66
2022/01/19 03:08:47;;;;;;;3.40;2.47;;;3.00;99.90;;;;;;5039610;28;20573;-68
2022/01/19 03:11:17;;;;;;;6.80;2.70;;;3.10;99.90;;;;;;5042046;28;20483;-65
2022/01/19 03:13:44;;;;;;;3.73;3.33;;;3.10;99.90;;;;;;5035308;28;20507;-66
2022/01/19 03:16:11;;;;;;;5.13;2.53;;;3.10;99.90;;;;;;5033612;28;20542;-66
2022/01/19 03:18:39;;;;;;;5.50;3.40;;;3.10;99.90;;;;;;5040564;28;20497;-67
2022/01/19 03:21:06;;;;;;;5.20;3.23;;;3.20;99.90;;;;;;5034747;28;20470;-66
2022/01/19 03:23:35;;;;;;;5.37;4.87;;;3.60;99.90;;;;;;5033983;28;20475;-66
2022/01/19 03:26:05;;;;;;;4.03;2.77;;;3.80;99.90;;;;;;5033338;28;20923;-66
2022/01/19 03:28:33;;;;;;;6.17;3.97;;;4.00;99.90;;;;;;5041536;28;20994;-65
2022/01/19 03:31:00;;;;;;;3.63;3.33;;;4.20;99.90;;;;;;5034157;28;20510;-65
2022/01/19 03:33:27;;;;;;;3.90;3.13;;;4.30;99.90;;;;;;5032943;28;20578;-66
2022/01/19 03:35:54;;;;;;;9.83;3.33;;;4.40;99.90;;;;;;5036756;28;20467;-66
2022/01/19 03:38:21;;;;;;;11.20;3.37;;;4.60;99.90;;;;;;5034227;28;23213;-66
2022/01/19 03:40:50;;;;;;;4.70;3.63;;;4.50;99.90;;;;;;5041408;28;20438;-67
2022/01/19 03:43:17;;;;;;;4.70;3.77;;;4.60;99.90;;;;;;5037862;28;20487;-67
2022/01/19 03:45:51;;;;;;;4.20;2.30;;;4.50;99.90;;;;;;5040141;28;20841;-66
2022/01/19 03:48:32;;;;;;;2.73;2.40;;;4.60;99.90;;;;;;5035946;28;20931;-67
2022/01/19 03:50:59;;;;;;;5.63;4.37;;;4.60;99.90;;;;;;5035301;28;20466;-67
2022/01/19 03:53:26;;;;;;;2.10;1.90;;;4.50;99.90;;;;;;5033703;28;20555;-66
2022/01/19 03:55:54;;;;;;;4.83;4.30;;;4.50;99.90;;;;;;5037740;28;20431;-68
2022/01/19 03:58:21;;;;;;;7.57;2.93;;;4.50;99.90;;;;;;5034769;28;20462;-66
2022/01/19 04:00:54;;;;;;;3.63;2.60;;;4.50;99.90;;;;;;5015488;28;20607;-66
2022/01/19 04:03:26;;;;;;;3.50;2.20;;;4.60;99.90;;;;;;5020107;28;20479;-67
2022/01/19 04:06:01;;;;;;;5.20;2.90;;;4.50;99.90;;;;;;5016337;28;20572;-66
2022/01/19 04:08:29;;;;;;;3.57;2.50;;;4.50;99.90;;;;;;5001380;28;20487;-67
2022/01/19 04:10:57;;;;;;;3.33;1.53;;;4.50;99.90;;;;;;5019737;28;20545;-69
2022/01/19 04:13:31;;;;;;;3.43;2.93;;;4.50;99.90;;;;;;5029763;28;20558;-67
2022/01/19 04:15:59;;;;;;;3.93;2.00;;;4.60;99.90;;;;;;5031646;28;20444;-68
2022/01/19 04:18:26;;;;;;;4.23;2.53;;;4.60;99.90;;;;;;5031951;28;20442;-67
2022/01/19 04:20:53;;;;;;;2.40;2.17;;;4.60;99.90;;;;;;5032358;28;20471;-66
2022/01/19 04:23:22;;;;;;;5.00;3.70;;;4.70;99.90;;;;;;5031500;28;20499;-67
2022/01/19 04:25:49;;;;;;;4.50;3.10;;;4.90;99.90;;;;;;5023257;28;20441;-67
2022/01/19 04:28:18;;;;;;;3.90;3.27;;;5.00;99.90;;;;;;5031879;28;20446;-66
2022/01/19 04:30:45;;;;;;;4.87;2.50;;;5.00;99.90;;;;;;5021788;28;20460;-67
2022/01/19 04:33:15;;;;;;;5.83;4.53;;;5.00;99.90;;;;;;5030429;28;20475;-67
2022/01/19 04:35:50;;;;;;;4.90;3.53;;;5.00;99.90;;;;;;5038664;28;20433;-67
2022/01/19 04:44:28;;;;;;;3.00;2.70;;;5.00;99.90;;;;;;5031531;28;20437;-68
2022/01/19 05:03:37;;;;;;;3.57;2.83;;;5.40;99.90;;;;;;5025800;28;20441;-67
2022/01/19 05:06:09;;;;;;;4.00;3.23;;;5.40;99.90;;;;;;5037639;28;20439;-67
2022/01/19 05:08:49;;;;;;;7.33;3.60;;;5.50;99.90;;;;;;5027254;28;20565;-67
2022/01/19 05:14:12;;;;;;;4.50;4.10;;;5.50;99.90;;;;;;5023961;28;21188;-67
2022/01/19 05:16:40;;;;;;;4.03;3.63;;;5.30;99.90;;;;;;5030871;28;20459;-68
2022/01/19 05:19:08;;;;;;;5.37;4.87;;;5.50;99.90;;;;;;5034918;28;20538;-67
2022/01/19 05:21:35;;;;;;;5.30;4.40;;;5.50;99.90;;;;;;5028939;28;20600;-67
2022/01/19 05:24:04;;;;;;;4.13;2.37;;;5.30;99.90;;;;;;5037103;28;20483;-67
2022/01/19 05:26:32;;;;;;;6.30;4.20;;;5.30;99.90;;;;;;5032144;28;20463;-67
2022/01/19 05:28:59;;;;;;;6.83;4.33;;;5.20;99.90;;;;;;5032583;28;20441;-68
2022/01/19 05:31:26;;;;;;;3.70;3.40;;;5.30;99.90;;;;;;5035490;28;20596;-68
2022/01/19 05:33:54;;;;;;;4.53;4.03;;;5.40;99.90;;;;;;5028276;28;20831;-67
2022/01/19 05:36:21;;;;;;;4.70;3.67;;;5.30;99.90;;;;;;5031465;28;20521;-67
2022/01/19 05:38:49;;;;;;;2.10;1.90;;;5.20;99.90;;;;;;5019951;28;20463;-67
2022/01/19 05:41:16;;;;;;;4.50;3.53;;;5.20;99.90;;;;;;5034770;28;20486;-68
2022/01/19 05:43:43;;;;;;;3.27;2.47;;;5.10;99.90;;;;;;5028119;28;20597;-68
2022/01/19 05:46:10;;;;;;;4.60;4.20;;;5.20;99.90;;;;;;5045288;28;20426;-68
2022/01/19 05:48:37;;;;;;;3.93;2.53;;;5.30;99.90;;;;;;5045540;28;20443;-68
2022/01/19 05:51:05;;;;;;;3.50;2.87;;;5.40;99.90;;;;;;5036370;28;20524;-68
2022/01/19 05:53:32;;;;;;;3.37;2.40;;;5.30;99.90;;;;;;5040192;28;20523;-68
2022/01/19 05:55:59;;;;;;;4.00;2.80;;;5.30;99.90;;;;;;5024902;28;20560;-67
2022/01/19 05:58:26;;;;;;;4.10;3.10;;;5.20;99.90;;;;;;5040064;28;20906;-68
2022/01/19 06:00:53;;;;;;;2.60;2.30;;;5.10;99.90;;;;;;5041715;28;20893;-67
2022/01/19 06:03:20;;;;;;;3.10;2.30;;;5.00;99.90;;;;;;5041039;28;20932;-68
2022/01/19 06:05:47;;;;;;;2.70;2.50;;;5.10;99.90;;;;;;5040457;28;20467;-68
2022/01/19 06:08:28;;;;;;;3.90;2.40;;;5.20;99.90;;;;;;5043998;28;20974;-68
2022/01/19 06:10:56;;;;;;;4.17;3.77;;;5.30;99.90;;;;;;5033042;28;20460;-68
2022/01/19 06:13:24;;;;;;;3.27;2.97;;;5.30;99.90;;;;;;5040343;28;20810;-67
2022/01/19 06:15:52;;;;;;;2.50;2.30;;;5.50;99.90;;;;;;5044580;28;21034;-68
2022/01/19 06:18:19;;;;;;;4.83;4.53;;;5.50;99.90;;;;;;5040147;28;21010;-68
2022/01/19 06:20:47;;;;;;;9.80;4.83;;;5.50;99.90;;;;;;5044710;28;20539;-68
2022/01/19 06:23:15;;;;;;;5.07;3.47;;;5.40;99.90;;;;;;5033476;28;20525;-68
2022/01/19 06:25:42;;;;;;;6.27;3.37;;;5.50;99.90;;;;;;5045693;28;20473;-67
2022/01/19 06:28:09;;;;;;;5.10;4.60;;;5.50;99.90;;;;;;5039117;28;20515;-68
2022/01/19 06:30:36;;;;;;;5.07;3.23;;;5.60;99.90;;;;;;5038261;28;20470;-67
2022/01/19 06:33:04;;;;;;;4.97;3.67;;;5.70;99.90;;;;;;5030668;28;20490;-67
2022/01/19 06:35:31;;;;;;;2.97;2.10;;;5.70;99.90;;;;;;5021779;28;20446;-66
2022/01/19 06:37:58;;;;;;;4.73;4.07;;;5.70;99.90;;;;;;5036958;28;20521;-67
2022/01/19 06:40:27;;;;;;;3.30;3.00;;;5.70;99.90;;;;;;5040620;28;20442;-67
2022/01/19 06:42:55;;;;;;;3.90;3.20;;;5.70;99.90;;;;;;5039481;28;20427;-67
2022/01/19 06:45:23;;;;;;;3.93;3.50;;;5.60;99.90;;;;;;5034072;28;20514;-68
2022/01/19 06:47:50;;;;;;;3.03;2.73;;;5.50;99.90;;;;;;5031103;28;20548;-67
2022/01/19 06:50:20;;;;;;;4.50;3.37;;;5.50;99.90;;;;;;5039764;28;20460;-67
2022/01/19 06:52:47;;;;;;;4.60;3.73;;;5.60;99.90;;;;;;5032084;28;20545;-67
2022/01/19 06:55:14;;;;;;;5.00;3.33;;;5.70;99.90;;;;;;5035936;28;20494;-68
2022/01/19 06:57:44;;;;;;;3.97;3.27;;;5.60;99.90;;;;;;5032254;28;20458;-67
2022/01/19 07:00:13;;;;;;;9.10;3.20;;;5.40;99.90;;;;;;5037982;28;20437;-67
2022/01/19 07:02:40;;;;;;;4.53;1.83;;;5.40;99.90;;;;;;5038878;28;20491;-67
2022/01/19 07:05:07;;;;;;;2.17;1.73;;;5.50;99.90;;;;;;5035559;28;20465;-68
2022/01/19 07:07:35;;;;;;;3.93;2.93;;;5.50;99.90;;;;;;5039656;28;20487;-68
2022/01/19 07:10:02;;;;;;;2.57;2.00;;;5.40;99.90;;;;;;5036296;28;21069;-68
2022/01/19 07:12:29;;;;;;;8.10;3.67;;;5.40;99.90;;;;;;5036784;28;20495;-67
2022/01/19 07:14:57;;;;;;;4.23;3.47;;;5.40;99.90;;;;;;5030281;28;20563;-68
2022/01/19 07:17:24;;;;;;;3.57;2.23;;;5.40;99.90;;;;;;5030838;28;20519;-68
2022/01/19 07:19:51;;;;;;;5.13;3.80;;;5.50;99.90;;;;;;5037378;28;20462;-67
2022/01/19 07:22:18;;;;;;;5.70;2.57;;;5.40;99.90;;;;;;5036901;28;20555;-67
2022/01/19 07:24:45;;;;;;;6.60;5.10;;;5.50;99.90;;;;;;5030340;28;20881;-68
2022/01/19 07:27:12;;;;;;;2.53;2.33;;;5.40;99.90;;;;;;5035468;28;20471;-68
2022/01/19 07:29:39;;;;;;;6.60;3.80;;;5.40;99.90;;;;;;5021443;28;20439;-67
2022/01/19 07:32:10;;;;;;;2.63;2.43;;;5.40;99.90;;;;;;5038442;28;20438;-66
2022/01/19 07:34:37;;;;;;;4.40;3.20;;;5.50;99.90;;;;;;5028342;28;20459;-67
2022/01/19 07:37:04;;;;;;;2.53;2.03;;;5.50;99.90;;;;;;5031245;28;20459;-67
2022/01/19 07:39:31;;;;;;;5.70;2.20;;;5.50;99.90;;;;;;5038957;28;20550;-67
2022/01/19 07:41:59;;;;;;;5.67;3.10;;;5.40;99.90;;;;;;5032371;28;20561;-67
2022/01/19 07:44:26;;;;;;;4.10;2.87;;;5.50;99.90;;;;;;5027078;28;20979;-67
2022/01/19 07:46:53;;;;;;;2.27;2.07;;;5.50;99.90;;;;;;5035020;28;20487;-67
2022/01/19 07:49:21;;;;;;;6.20;3.83;;;5.50;99.90;;;;;;5033879;28;20521;-67
2022/01/19 07:51:48;;;;;;;3.17;2.87;;;5.50;99.90;;;;;;5031290;28;20535;-68
2022/01/19 07:54:15;;;;;;;4.70;3.50;;;5.60;99.90;;;;;;5032657;28;20578;-67
2022/01/19 07:56:42;;;;;;;7.00;3.50;;;5.60;99.90;;;;;;5039375;28;20933;-67
2022/01/19 07:59:09;;;;;;;5.13;2.90;;;5.60;99.90;;;;;;5025259;28;20972;-67
2022/01/19 08:01:36;;;;;;;3.00;2.37;;;5.70;99.90;;;;;;5042585;28;20509;-68
2022/01/19 08:04:03;;;;;;;3.63;3.33;;;5.70;99.90;;;;;;5030815;28;20501;-67
2022/01/19 08:06:32;;;;;;;2.13;1.90;;;5.70;99.90;;;;;;5033521;28;20441;-67
2022/01/19 08:08:59;;;;;;;3.60;2.27;;;5.70;99.90;;;;;;5039227;28;20952;-67
2022/01/19 08:11:26;;;;;;;2.87;2.37;;;5.70;99.90;;;;;;5032230;28;20434;-68
2022/01/19 08:13:53;;;;;;;3.10;2.60;;;5.80;99.90;;;;;;5025684;28;20604;-67
2022/01/19 08:16:21;;;;;;;2.83;2.57;;;5.70;99.90;;;;;;5031861;28;20843;-67
2022/01/19 08:18:48;;;;;;;4.30;2.37;;;5.80;99.90;;;;;;5026962;28;20437;-67
2022/01/19 08:21:15;;;;;;;3.40;2.53;;;5.70;99.90;;;;;;5033831;28;20508;-66
2022/01/19 08:23:44;;;;;;;2.17;1.90;;;5.60;99.90;;;;;;5031346;28;21112;-67
2022/01/19 08:26:13;;;;;;;4.40;3.87;;;5.50;99.90;;;;;;5038238;28;20546;-67
2022/01/19 08:28:40;;;;;;;7.50;4.73;;;5.50;99.90;;;;;;5039074;28;20441;-67
2022/01/19 08:31:07;;;;;;;5.30;3.80;;;5.50;99.90;;;;;;5040224;28;20519;-66
2022/01/19 08:33:34;;;;;;;4.80;2.30;;;5.60;99.90;;;;;;5030625;28;20531;-67
2022/01/19 08:36:01;;;;;;;4.33;3.70;;;5.50;99.90;;;;;;5041567;28;20501;-66
2022/01/19 08:38:28;;;;;;;5.57;4.10;;;5.50;99.90;;;;;;5042022;28;20529;-67
2022/01/19 08:40:59;;;;;;;3.37;3.07;;;5.50;99.90;;;;;;5026764;28;20477;-66
2022/01/19 08:43:26;;;;;;;7.07;4.73;;;5.50;99.90;;;;;;5026546;28;20485;-67
2022/01/19 08:45:55;;;;;;;7.40;3.70;;;5.60;99.90;;;;;;5032967;28;20430;-67
2022/01/19 08:48:22;;;;;;;9.07;6.23;;;5.60;99.90;;;;;;5025110;28;20460;-67
2022/01/19 08:50:49;;;;;;;9.00;6.20;;;5.60;99.90;;;;;;5034262;28;20430;-67
2022/01/19 08:53:16;;;;;;;4.00;3.03;;;5.60;99.90;;;;;;5033678;28;21866;-67
2022/01/19 08:55:43;;;;;;;3.63;2.43;;;5.60;99.90;;;;;;5030928;28;20477;-67
2022/01/19 08:58:13;;;;;;;7.60;4.77;;;5.40;99.90;;;;;;5035253;28;21023;-67
2022/01/19 09:00:41;;;;;;;6.17;4.90;;;5.20;99.90;;;;;;5026270;28;20450;-67
2022/01/19 09:03:08;;;;;;;4.87;4.30;;;5.40;99.90;;;;;;5034626;28;20747;-67
2022/01/19 09:05:35;;;;;;;5.53;4.13;;;5.40;99.90;;;;;;5029610;28;20663;-67
2022/01/19 09:08:02;;;;;;;11.97;5.13;;;5.30;99.90;;;;;;5019102;28;20555;-66
2022/01/19 09:10:29;;;;;;;5.20;4.63;;;5.40;99.90;;;;;;5027831;28;20548;-66
2022/01/19 09:12:57;;;;;;;3.10;2.50;;;5.30;99.90;;;;;;5026168;28;20596;-66
2022/01/19 09:15:25;;;;;;;4.03;3.67;;;5.30;99.90;;;;;;5041636;28;20593;-65
2022/01/19 09:17:53;;;;;;;14.60;12.67;;;5.20;99.90;;;;;;5037038;28;20470;-66
2022/01/19 09:20:20;;;;;;;13.80;4.63;;;5.10;99.90;;;;;;5038675;28;20454;-66
2022/01/19 09:22:49;;;;;;;11.47;6.43;;;5.00;99.90;;;;;;5034111;28;20433;-67
2022/01/19 09:25:16;;;;;;;14.43;5.90;;;5.10;99.90;;;;;;5019721;28;20458;-66
2022/01/19 09:27:43;;;;;;;13.07;6.93;;;5.20;99.90;;;;;;5030301;28;20432;-67
2022/01/19 09:30:14;;;;;;;8.60;5.50;;;5.20;99.90;;;;;;5026266;28;20434;-67
2022/01/19 09:32:44;;;;;;;19.00;10.37;;;5.30;99.90;;;;;;5037796;28;20496;-66
2022/01/19 09:35:11;;;;;;;13.53;7.43;;;5.30;99.90;;;;;;5025497;28;20531;-66
2022/01/19 09:37:40;;;;;;;3.37;2.90;;;5.30;99.90;;;;;;5032803;28;20438;-67
2022/01/19 09:40:08;;;;;;;7.53;5.10;;;5.40;99.90;;;;;;5028254;28;20527;-66
2022/01/19 09:42:35;;;;;;;13.13;4.93;;;5.30;99.90;;;;;;5035644;28;20894;-66
2022/01/19 09:45:03;;;;;;;8.63;4.97;;;5.30;99.90;;;;;;5031714;28;20471;-67
2022/01/19 09:47:30;;;;;;;7.23;4.73;;;5.30;99.90;;;;;;5031636;28;20832;-68
2022/01/19 09:49:58;;;;;;;12.40;5.37;;;5.40;99.90;;;;;;5038224;28;20434;-67
2022/01/19 09:52:25;;;;;;;8.30;5.40;;;5.40;99.90;;;;;;5027635;28;20541;-67
2022/01/19 09:54:55;;;;;;;10.47;5.57;;;5.40;99.90;;;;;;5034880;28;20503;-66
2022/01/19 09:57:22;;;;;;;6.50;4.07;;;5.40;99.90;;;;;;5037966;28;21033;-67
2022/01/19 09:59:49;;;;;;;3.60;2.57;;;5.20;99.90;;;;;;5033409;28;20962;-67
2022/01/19 10:02:17;;;;;;;9.67;4.40;;;5.10;99.90;;;;;;5038322;28;20458;-67
2022/01/19 10:04:47;;;;;;;6.30;4.03;;;5.20;99.90;;;;;;5040804;28;20479;-68
2022/01/19 10:07:19;;;;;;;2.40;2.20;;;5.20;99.90;;;;;;5034005;28;20477;-68
2022/01/19 10:09:51;;;;;;;6.37;4.50;;;5.20;99.90;;;;;;5039243;28;20521;-67
2022/01/19 10:18:07;;;;;;;4.30;3.50;;;5.40;99.90;;;;;;5033626;28;20500;-67
2022/01/19 10:20:34;;;;;;;7.30;4.30;;;5.50;99.90;;;;;;5038781;28;20442;-67
2022/01/19 10:23:02;;;;;;;7.70;5.27;;;5.50;99.90;;;;;;5039509;28;20606;-66
2022/01/19 10:25:47;;;;;;;10.43;5.70;;;5.50;99.90;;;;;;5033502;28;21017;-66
2022/01/19 10:28:14;;;;;;;12.13;6.50;;;5.60;99.90;;;;;;5030547;28;20458;-66
2022/01/19 10:30:41;;;;;;;7.53;5.60;;;5.60;99.90;;;;;;5036979;28;20512;-66
2022/01/19 10:33:08;;;;;;;9.60;5.63;;;5.80;99.90;;;;;;5032447;28;20878;-66
2022/01/19 10:35:37;;;;;;;8.93;4.50;;;5.90;99.90;;;;;;5042027;28;20877;-66
2022/01/19 10:38:13;;;;;;;8.07;3.63;;;6.00;99.90;;;;;;5035384;28;20490;-67
2022/01/19 10:40:44;;;;;;;9.20;6.83;;;5.80;99.90;;;;;;5043267;28;20434;-67
2022/01/19 10:43:32;;;;;;;9.60;5.37;;;5.70;99.90;;;;;;5037490;28;20459;-67
2022/01/19 10:46:02;;;;;;;5.20;2.97;;;5.70;99.90;;;;;;5042868;28;21073;-66
2022/01/19 10:48:35;;;;;;;11.13;5.17;;;5.70;99.90;;;;;;5044203;28;20951;-68
2022/01/19 10:51:13;;;;;;;10.33;3.80;;;5.60;99.90;;;;;;5035981;28;20529;-67
2022/01/19 10:53:44;;;;;;;9.00;5.17;;;5.70;99.90;;;;;;5029157;28;20457;-67
2022/01/19 10:56:28;;;;;;;13.80;5.57;;;5.70;99.90;;;;;;5043705;28;20506;-67
2022/01/19 10:58:57;;;;;;;3.10;2.90;;;5.50;99.90;;;;;;5042103;28;20459;-67
2022/01/19 11:01:40;;;;;;;9.30;5.23;;;5.50;99.90;;;;;;5038334;28;20522;-67
2022/01/19 11:04:23;;;;;;;8.60;5.13;;;5.60;99.90;;;;;;5040515;28;20506;-69
2022/01/19 11:06:51;;;;;;;7.93;4.67;;;5.70;99.90;;;;;;5043585;28;20922;-67
2022/01/19 11:09:24;;;;;;;8.70;5.60;;;5.70;99.90;;;;;;5039691;28;20509;-67
2022/01/19 11:11:52;;;;;;;11.13;6.50;;;5.70;99.90;;;;;;5035634;28;20459;-68
2022/01/19 11:14:19;;;;;;;4.20;3.07;;;5.70;99.90;;;;;;5021704;28;20484;-68
2022/01/19 11:16:48;;;;;;;9.57;5.57;;;5.70;99.90;;;;;;5042456;28;20558;-67
2022/01/19 11:19:15;;;;;;;12.93;6.33;;;5.70;99.90;;;;;;5040698;28;20517;-67
2022/01/19 11:21:59;;;;;;;12.80;5.47;;;5.70;99.90;;;;;;5040094;28;20547;-67
2022/01/19 11:24:35;;;;;;;7.97;4.07;;;5.80;99.90;;;;;;5036665;28;20496;-68
2022/01/19 11:27:03;;;;;;;9.40;4.97;;;5.80;99.90;;;;;;5038987;28;20455;-67
2022/01/19 11:29:32;;;;;;;10.53;6.67;;;5.70;99.90;;;;;;5038486;28;20472;-67
2022/01/19 11:32:12;;;;;;;2.77;2.43;;;5.80;99.90;;;;;;5039993;28;20458;-68
2022/01/19 11:34:42;;;;;;;9.80;3.93;;;5.80;99.90;;;;;;5030051;28;20530;-68
2022/01/19 11:37:10;;;;;;;12.13;6.87;;;5.70;99.90;;;;;;5042689;28;20438;-68
2022/01/19 11:39:58;;;;;;;8.07;4.97;;;5.70;99.90;;;;;;5038570;28;20461;-68
2022/01/19 11:42:25;;;;;;;16.67;6.63;;;5.90;99.90;;;;;;5036972;28;21104;-68
2022/01/19 11:44:52;;;;;;;14.30;6.23;;;6.10;99.90;;;;;;5036004;28;20575;-68
2022/01/19 11:47:25;;;;;;;11.10;5.63;;;6.10;99.90;;;;;;5041975;28;20970;-68
2022/01/19 11:49:54;;;;;;;8.13;4.40;;;6.10;99.90;;;;;;5039914;28;20467;-68
2022/01/19 11:52:24;;;;;;;14.13;6.93;;;6.10;99.90;;;;;;5038743;28;20430;-69
2022/01/19 11:55:11;;;;;;;13.37;7.00;;;6.00;99.90;;;;;;5037383;28;20487;-68
2022/01/19 11:57:40;;;;;;;10.33;6.00;;;6.00;99.90;;;;;;5039933;28;20434;-69
2022/01/19 12:00:15;;;;;;;15.07;7.80;;;6.20;99.90;;;;;;5041031;28;20459;-69
2022/01/19 12:02:45;;;;;;;10.87;5.83;;;6.00;99.90;;;;;;5034283;28;20478;-68
2022/01/19 12:05:22;;;;;;;10.00;6.23;;;5.90;99.90;;;;;;5034965;28;20484;-67
2022/01/19 12:07:52;;;;;;;9.17;6.27;;;5.90;99.90;;;;;;5025903;28;21431;-67
2022/01/19 12:10:42;;;;;;;3.77;3.33;;;6.00;99.90;;;;;;5033658;28;21167;-67
2022/01/19 12:16:51;;;;;;;9.40;4.80;;;6.00;99.90;;;;;;5042241;28;20443;-68
2022/01/19 12:19:27;;;;;;;9.30;4.60;;;5.90;99.90;;;;;;5035626;28;20459;-67
2022/01/19 12:22:02;;;;;;;11.07;5.60;;;5.90;99.90;;;;;;5038532;28;20959;-67
2022/01/19 12:24:32;;;;;;;9.73;5.30;;;5.90;99.90;;;;;;5030887;28;21071;-67
2022/01/19 12:27:08;;;;;;;5.07;2.83;;;5.80;99.90;;;;;;5040460;28;20460;-67
2022/01/19 12:30:07;;;;;;;6.63;4.50;;;5.80;99.90;;;;;;5038290;28;20986;-67
2022/01/19 12:32:44;;;;;;;19.93;5.30;;;5.70;99.90;;;;;;5008344;28;20945;-67
2022/01/19 12:35:34;;;;;;;9.60;7.13;;;5.70;99.90;;;;;;5042285;28;20481;-67
2022/01/19 12:38:04;;;;;;;8.20;4.83;;;5.80;99.90;;;;;;5030334;28;20470;-67
2022/01/19 12:40:43;;;;;;;5.07;3.80;;;5.80;99.90;;;;;;5037946;28;20472;-67
2022/01/19 12:43:29;;;;;;;8.00;4.90;;;5.80;99.90;;;;;;5037218;28;20795;-68
2022/01/19 12:45:57;;;;;;;10.23;6.50;;;5.80;99.90;;;;;;5032701;28;20468;-67
2022/01/19 12:48:47;;;;;;;8.70;4.97;;;5.70;99.90;;;;;;5038457;28;20929;-67
2022/01/19 12:51:35;;;;;;;9.70;6.60;;;5.80;99.90;;;;;;5037929;28;20995;-67
2022/01/19 12:54:03;;;;;;;8.20;3.87;;;5.70;99.90;;;;;;5026602;28;20454;-67
2022/01/19 12:56:30;;;;;;;6.23;5.60;;;5.70;99.90;;;;;;5037529;28;20582;-67
2022/01/19 12:59:03;;;;;;;16.47;6.37;;;5.70;99.90;;;;;;5040652;28;20520;-66
2022/01/19 13:01:31;;;;;;;5.87;3.93;;;5.70;99.90;;;;;;5033226;28;20935;-68
2022/01/19 13:03:58;;;;;;;8.67;5.03;;;5.70;99.90;;;;;;5025234;28;20651;-68
2022/01/19 13:06:27;;;;;;;8.83;5.37;;;5.80;99.90;;;;;;5033704;28;20422;-66
2022/01/19 13:09:01;;;;;;;9.97;5.00;;;5.80;99.90;;;;;;5032514;28;20956;-67
2022/01/19 13:11:35;;;;;;;11.97;6.83;;;5.60;99.90;;;;;;5033219;28;21034;-69
2022/01/19 13:14:06;;;;;;;4.90;4.30;;;5.50;99.90;;;;;;5031053;28;20814;-69
2022/01/19 13:16:39;;;;;;;8.10;4.90;;;5.60;99.90;;;;;;5031940;28;20490;-67
2022/01/19 13:19:19;;;;;;;14.40;7.87;;;5.60;99.90;;;;;;5036660;28;20474;-68
2022/01/19 13:21:48;;;;;;;14.77;9.13;;;5.70;99.90;;;;;;5039738;28;20471;-67
2022/01/19 13:24:19;;;;;;;12.20;6.53;;;5.80;99.90;;;;;;5030550;28;21236;-67
2022/01/19 13:26:51;;;;;;;13.03;6.10;;;5.80;99.90;;;;;;5041220;28;20457;-67
2022/01/19 13:29:26;;;;;;;18.07;8.77;;;5.70;99.90;;;;;;5034913;28;20463;-67
2022/01/19 13:32:00;;;;;;;6.17;3.37;;;5.60;99.90;;;;;;5029603;28;20522;-68
2022/01/19 13:34:28;;;;;;;11.60;7.20;;;5.60;99.90;;;;;;5035339;28;20499;-69
2022/01/19 13:36:58;;;;;;;12.90;7.00;;;5.70;99.90;;;;;;5036040;28;21030;-68
2022/01/19 13:39:25;;;;;;;7.77;5.53;;;5.70;99.90;;;;;;5033646;28;20462;-69
2022/01/19 13:41:54;;;;;;;8.53;4.50;;;5.60;99.90;;;;;;5038340;28;21349;-68
2022/01/19 13:44:33;;;;;;;8.27;5.33;;;5.70;99.90;;;;;;5028051;28;20492;-68
2022/01/19 13:47:10;;;;;;;5.50;4.83;;;5.60;99.90;;;;;;5032435;28;21688;-66
2022/01/19 13:49:39;;;;;;;12.47;6.50;;;5.50;99.90;;;;;;5027729;28;20441;-67
2022/01/19 13:52:09;;;;;;;11.20;8.67;;;5.70;99.90;;;;;;5040297;28;20484;-67
2022/01/19 13:54:39;;;;;;;12.70;6.90;;;5.70;99.90;;;;;;5025183;28;20491;-67
2022/01/19 13:57:06;;;;;;;12.73;6.47;;;5.70;99.90;;;;;;5037044;28;20437;-67
2022/01/19 13:59:35;;;;;;;11.10;5.23;;;5.80;99.90;;;;;;5031845;28;20450;-66
2022/01/19 14:02:13;;;;;;;8.20;6.30;;;5.60;99.90;;;;;;5036278;28;22820;-67
2022/01/19 14:04:52;;;;;;;13.60;7.70;;;5.60;99.90;;;;;;5031054;28;20486;-67
2022/01/19 14:07:20;;;;;;;7.63;6.10;;;5.50;99.90;;;;;;5034264;28;20826;-67
2022/01/19 14:09:48;;;;;;;11.70;6.80;;;5.50;99.90;;;;;;5042710;28;20500;-66
2022/01/19 14:12:19;;;;;;;7.33;4.90;;;5.50;99.90;;;;;;5029825;28;20584;-67
2022/01/19 14:14:55;;;;;;;10.87;6.17;;;5.70;99.90;;;;;;5036535;28;20479;-67
2022/01/19 14:17:27;;;;;;;11.20;6.83;;;5.60;99.90;;;;;;5040498;28;20459;-67
2022/01/19 14:19:55;;;;;;;10.37;5.57;;;5.60;99.90;;;;;;5042011;28;20879;-67
2022/01/19 14:22:27;;;;;;;10.90;6.93;;;5.50;99.90;;;;;;5034807;28;20997;-67
2022/01/19 14:24:58;;;;;;;6.17;5.07;;;5.50;99.90;;;;;;5037470;28;20460;-67